sensor_id;sensor_type;location;lat;lon;timestamp;P1;durP1;ratioP1;P2;durP2;ratioP2
47155;SDS011;32908;52.344;16.858;2022-10-31T00:01:37;32.20;;;22.90;;
47155;SDS011;32908;52.344;16.858;2022-10-31T00:04:06;33.40;;;22.77;;
47155;SDS011;32908;52.344;16.858;2022-10-31T00:06:34;32.70;;;24.00;;
47155;SDS011;32908;52.344;16.858;2022-10-31T00:09:03;30.67;;;23.57;;
47155;SDS011;32908;52.344;16.858;2022-10-31T00:11:32;33.80;;;24.40;;
47155;SDS011;32908;52.344;16.858;2022-10-31T00:14:01;33.73;;;23.87;;
47155;SDS011;32908;52.344;16.858;2022-10-31T00:16:29;30.70;;;23.60;;
47155;SDS011;32908;52.344;16.858;2022-10-31T00:18:58;31.70;;;21.83;;
47155;SDS011;32908;52.344;16.858;2022-10-31T00:21:28;34.50;;;24.47;;
47155;SDS011;32908;52.344;16.858;2022-10-31T00:23:57;37.23;;;26.20;;
47155;SDS011;32908;52.344;16.858;2022-10-31T00:26:27;43.47;;;29.10;;
47155;SDS011;32908;52.344;16.858;2022-10-31T00:28:57;57.30;;;34.40;;
47155;SDS011;32908;52.344;16.858;2022-10-31T00:31:26;53.63;;;34.73;;
47155;SDS011;32908;52.344;16.858;2022-10-31T00:33:54;62.67;;;38.73;;
47155;SDS011;32908;52.344;16.858;2022-10-31T00:36:22;58.75;;;34.85;;
47155;SDS011;32908;52.344;16.858;2022-10-31T00:38:50;57.73;;;34.73;;
47155;SDS011;32908;52.344;16.858;2022-10-31T00:41:18;68.10;;;39.20;;
47155;SDS011;32908;52.344;16.858;2022-10-31T00:43:47;66.80;;;38.70;;
47155;SDS011;32908;52.344;16.858;2022-10-31T00:46:15;71.73;;;41.37;;
47155;SDS011;32908;52.344;16.858;2022-10-31T00:48:43;84.73;;;45.90;;
47155;SDS011;32908;52.344;16.858;2022-10-31T00:51:11;79.90;;;43.50;;
47155;SDS011;32908;52.344;16.858;2022-10-31T00:53:40;90.20;;;47.57;;
47155;SDS011;32908;52.344;16.858;2022-10-31T00:56:08;92.27;;;47.23;;
47155;SDS011;32908;52.344;16.858;2022-10-31T00:58:37;88.83;;;46.13;;
47155;SDS011;32908;52.344;16.858;2022-10-31T01:01:05;93.17;;;48.33;;
47155;SDS011;32908;52.344;16.858;2022-10-31T01:03:34;84.47;;;46.83;;
47155;SDS011;32908;52.344;16.858;2022-10-31T01:06:05;78.37;;;45.47;;
47155;SDS011;32908;52.344;16.858;2022-10-31T01:08:36;80.93;;;45.87;;
47155;SDS011;32908;52.344;16.858;2022-10-31T01:11:07;78.23;;;45.30;;
47155;SDS011;32908;52.344;16.858;2022-10-31T01:13:38;78.60;;;44.03;;
47155;SDS011;32908;52.344;16.858;2022-10-31T01:16:07;76.20;;;44.20;;
47155;SDS011;32908;52.344;16.858;2022-10-31T01:18:37;71.20;;;43.37;;
47155;SDS011;32908;52.344;16.858;2022-10-31T01:21:06;72.30;;;43.83;;
47155;SDS011;32908;52.344;16.858;2022-10-31T01:23:36;74.47;;;44.10;;
47155;SDS011;32908;52.344;16.858;2022-10-31T01:26:05;71.03;;;41.97;;
47155;SDS011;32908;52.344;16.858;2022-10-31T01:28:36;66.10;;;41.53;;
47155;SDS011;32908;52.344;16.858;2022-10-31T01:31:07;73.25;;;42.45;;
47155;SDS011;32908;52.344;16.858;2022-10-31T01:33:37;75.83;;;43.40;;
47155;SDS011;32908;52.344;16.858;2022-10-31T01:36:12;71.43;;;42.47;;
47155;SDS011;32908;52.344;16.858;2022-10-31T01:43:47;71.40;;;41.83;;
47155;SDS011;32908;52.344;16.858;2022-10-31T01:46:18;67.73;;;39.30;;
47155;SDS011;32908;52.344;16.858;2022-10-31T01:48:49;68.17;;;41.33;;
47155;SDS011;32908;52.344;16.858;2022-10-31T01:51:18;67.57;;;41.90;;
47155;SDS011;32908;52.344;16.858;2022-10-31T01:53:47;70.47;;;42.43;;
47155;SDS011;32908;52.344;16.858;2022-10-31T01:56:16;68.13;;;42.17;;
47155;SDS011;32908;52.344;16.858;2022-10-31T01:58:46;67.83;;;41.60;;
47155;SDS011;32908;52.344;16.858;2022-10-31T02:01:14;69.43;;;42.53;;
47155;SDS011;32908;52.344;16.858;2022-10-31T02:03:44;71.83;;;41.37;;
47155;SDS011;32908;52.344;16.858;2022-10-31T02:06:18;72.17;;;41.73;;
47155;SDS011;32908;52.344;16.858;2022-10-31T02:08:52;72.93;;;42.57;;
47155;SDS011;32908;52.344;16.858;2022-10-31T02:11:21;70.03;;;40.77;;
47155;SDS011;32908;52.344;16.858;2022-10-31T02:13:49;68.13;;;41.10;;
47155;SDS011;32908;52.344;16.858;2022-10-31T02:16:17;71.00;;;42.33;;
47155;SDS011;32908;52.344;16.858;2022-10-31T02:18:45;78.07;;;44.07;;
47155;SDS011;32908;52.344;16.858;2022-10-31T02:21:15;68.13;;;41.53;;
47155;SDS011;32908;52.344;16.858;2022-10-31T02:24:00;73.30;;;42.50;;
47155;SDS011;32908;52.344;16.858;2022-10-31T02:27:06;63.03;;;40.17;;
47155;SDS011;32908;52.344;16.858;2022-10-31T02:29:53;67.17;;;42.23;;
47155;SDS011;32908;52.344;16.858;2022-10-31T02:32:30;62.07;;;39.13;;
47155;SDS011;32908;52.344;16.858;2022-10-31T02:35:08;64.75;;;40.15;;
47155;SDS011;32908;52.344;16.858;2022-10-31T02:37:40;71.10;;;40.87;;
47155;SDS011;32908;52.344;16.858;2022-10-31T02:40:15;72.30;;;40.93;;
47155;SDS011;32908;52.344;16.858;2022-10-31T02:42:49;73.87;;;43.13;;
47155;SDS011;32908;52.344;16.858;2022-10-31T02:45:24;70.53;;;42.37;;
47155;SDS011;32908;52.344;16.858;2022-10-31T02:47:57;78.00;;;45.73;;
47155;SDS011;32908;52.344;16.858;2022-10-31T02:50:28;69.37;;;41.00;;
47155;SDS011;32908;52.344;16.858;2022-10-31T02:53:00;65.40;;;39.50;;
47155;SDS011;32908;52.344;16.858;2022-10-31T02:58:34;72.65;;;41.40;;
47155;SDS011;32908;52.344;16.858;2022-10-31T03:04:04;68.77;;;40.53;;
47155;SDS011;32908;52.344;16.858;2022-10-31T03:06:44;69.53;;;40.57;;
47155;SDS011;32908;52.344;16.858;2022-10-31T03:09:16;68.10;;;40.73;;
47155;SDS011;32908;52.344;16.858;2022-10-31T03:11:51;64.47;;;40.13;;
47155;SDS011;32908;52.344;16.858;2022-10-31T03:14:26;61.50;;;38.40;;
47155;SDS011;32908;52.344;16.858;2022-10-31T03:16:59;64.53;;;39.07;;
47155;SDS011;32908;52.344;16.858;2022-10-31T03:19:32;70.30;;;39.85;;
47155;SDS011;32908;52.344;16.858;2022-10-31T03:22:04;67.30;;;39.53;;
47155;SDS011;32908;52.344;16.858;2022-10-31T03:24:38;65.40;;;38.73;;
47155;SDS011;32908;52.344;16.858;2022-10-31T03:27:07;65.20;;;38.25;;
47155;SDS011;32908;52.344;16.858;2022-10-31T03:29:37;61.40;;;37.50;;
47155;SDS011;32908;52.344;16.858;2022-10-31T03:32:06;63.40;;;39.97;;
47155;SDS011;32908;52.344;16.858;2022-10-31T03:34:36;61.87;;;38.47;;
47155;SDS011;32908;52.344;16.858;2022-10-31T03:37:07;67.57;;;40.10;;
47155;SDS011;32908;52.344;16.858;2022-10-31T03:39:38;65.80;;;40.73;;
47155;SDS011;32908;52.344;16.858;2022-10-31T03:42:09;67.17;;;39.23;;
47155;SDS011;32908;52.344;16.858;2022-10-31T03:44:37;62.47;;;40.93;;
47155;SDS011;32908;52.344;16.858;2022-10-31T03:47:08;65.37;;;40.07;;
47155;SDS011;32908;52.344;16.858;2022-10-31T03:49:36;62.43;;;39.70;;
47155;SDS011;32908;52.344;16.858;2022-10-31T03:52:06;60.97;;;37.27;;
47155;SDS011;32908;52.344;16.858;2022-10-31T03:54:40;63.47;;;38.63;;
47155;SDS011;32908;52.344;16.858;2022-10-31T03:57:11;71.73;;;40.40;;
47155;SDS011;32908;52.344;16.858;2022-10-31T03:59:44;60.97;;;38.50;;
47155;SDS011;32908;52.344;16.858;2022-10-31T04:02:15;63.67;;;39.47;;
47155;SDS011;32908;52.344;16.858;2022-10-31T04:04:44;71.90;;;40.80;;
47155;SDS011;32908;52.344;16.858;2022-10-31T04:07:14;70.80;;;41.43;;
47155;SDS011;32908;52.344;16.858;2022-10-31T04:09:43;62.83;;;38.57;;
47155;SDS011;32908;52.344;16.858;2022-10-31T04:12:13;61.43;;;38.77;;
47155;SDS011;32908;52.344;16.858;2022-10-31T04:14:43;66.00;;;39.53;;
47155;SDS011;32908;52.344;16.858;2022-10-31T04:17:13;62.50;;;37.00;;
47155;SDS011;32908;52.344;16.858;2022-10-31T04:19:44;62.90;;;38.55;;
47155;SDS011;32908;52.344;16.858;2022-10-31T04:22:13;62.53;;;37.20;;
47155;SDS011;32908;52.344;16.858;2022-10-31T04:24:42;58.13;;;36.47;;
47155;SDS011;32908;52.344;16.858;2022-10-31T04:27:10;56.73;;;37.27;;
47155;SDS011;32908;52.344;16.858;2022-10-31T04:29:39;61.87;;;37.50;;
47155;SDS011;32908;52.344;16.858;2022-10-31T04:32:08;57.70;;;36.67;;
47155;SDS011;32908;52.344;16.858;2022-10-31T04:34:36;59.43;;;37.37;;
47155;SDS011;32908;52.344;16.858;2022-10-31T04:37:04;55.00;;;37.03;;
47155;SDS011;32908;52.344;16.858;2022-10-31T04:39:32;52.03;;;35.77;;
47155;SDS011;32908;52.344;16.858;2022-10-31T04:42:01;58.83;;;36.57;;
47155;SDS011;32908;52.344;16.858;2022-10-31T04:44:30;53.73;;;35.73;;
47155;SDS011;32908;52.344;16.858;2022-10-31T04:46:58;57.80;;;36.97;;
47155;SDS011;32908;52.344;16.858;2022-10-31T04:49:26;51.83;;;34.83;;
47155;SDS011;32908;52.344;16.858;2022-10-31T04:51:54;63.30;;;36.97;;
47155;SDS011;32908;52.344;16.858;2022-10-31T04:54:23;68.37;;;39.63;;
47155;SDS011;32908;52.344;16.858;2022-10-31T04:56:51;76.70;;;42.70;;
47155;SDS011;32908;52.344;16.858;2022-10-31T04:59:20;67.10;;;41.50;;
47155;SDS011;32908;52.344;16.858;2022-10-31T05:01:48;66.03;;;40.80;;
47155;SDS011;32908;52.344;16.858;2022-10-31T05:04:17;67.20;;;40.23;;
47155;SDS011;32908;52.344;16.858;2022-10-31T05:06:45;67.80;;;42.40;;
47155;SDS011;32908;52.344;16.858;2022-10-31T05:09:13;66.73;;;40.83;;
47155;SDS011;32908;52.344;16.858;2022-10-31T05:11:42;71.07;;;41.47;;
47155;SDS011;32908;52.344;16.858;2022-10-31T05:14:10;68.50;;;40.95;;
47155;SDS011;32908;52.344;16.858;2022-10-31T05:16:38;69.23;;;40.60;;
47155;SDS011;32908;52.344;16.858;2022-10-31T05:19:07;63.83;;;38.70;;
47155;SDS011;32908;52.344;16.858;2022-10-31T05:21:35;66.03;;;39.23;;
47155;SDS011;32908;52.344;16.858;2022-10-31T05:24:04;63.10;;;38.30;;
47155;SDS011;32908;52.344;16.858;2022-10-31T05:26:35;69.87;;;40.37;;
47155;SDS011;32908;52.344;16.858;2022-10-31T05:29:03;69.10;;;40.13;;
47155;SDS011;32908;52.344;16.858;2022-10-31T05:31:31;79.07;;;42.63;;
47155;SDS011;32908;52.344;16.858;2022-10-31T05:33:59;79.05;;;44.00;;
47155;SDS011;32908;52.344;16.858;2022-10-31T05:36:28;75.23;;;43.10;;
47155;SDS011;32908;52.344;16.858;2022-10-31T05:38:56;75.10;;;44.20;;
47155;SDS011;32908;52.344;16.858;2022-10-31T05:41:25;76.37;;;44.63;;
47155;SDS011;32908;52.344;16.858;2022-10-31T05:43:53;79.97;;;44.77;;
47155;SDS011;32908;52.344;16.858;2022-10-31T05:46:21;80.37;;;46.40;;
47155;SDS011;32908;52.344;16.858;2022-10-31T05:48:49;82.37;;;46.37;;
47155;SDS011;32908;52.344;16.858;2022-10-31T05:51:17;78.80;;;44.97;;
47155;SDS011;32908;52.344;16.858;2022-10-31T05:53:46;78.63;;;45.10;;
47155;SDS011;32908;52.344;16.858;2022-10-31T05:56:15;80.00;;;44.50;;
47155;SDS011;32908;52.344;16.858;2022-10-31T05:58:43;86.60;;;48.07;;
47155;SDS011;32908;52.344;16.858;2022-10-31T06:01:11;86.37;;;48.80;;
47155;SDS011;32908;52.344;16.858;2022-10-31T06:03:40;80.27;;;47.23;;
47155;SDS011;32908;52.344;16.858;2022-10-31T06:06:09;83.60;;;48.53;;
47155;SDS011;32908;52.344;16.858;2022-10-31T06:08:37;88.70;;;49.63;;
47155;SDS011;32908;52.344;16.858;2022-10-31T06:11:05;90.77;;;50.23;;
47155;SDS011;32908;52.344;16.858;2022-10-31T06:13:34;95.53;;;53.33;;
47155;SDS011;32908;52.344;16.858;2022-10-31T06:16:03;89.23;;;51.83;;
47155;SDS011;32908;52.344;16.858;2022-10-31T06:18:32;90.03;;;50.23;;
47155;SDS011;32908;52.344;16.858;2022-10-31T06:21:00;84.03;;;48.63;;
47155;SDS011;32908;52.344;16.858;2022-10-31T06:23:29;92.73;;;48.57;;
47155;SDS011;32908;52.344;16.858;2022-10-31T06:25:57;88.07;;;50.37;;
47155;SDS011;32908;52.344;16.858;2022-10-31T06:28:26;87.60;;;49.50;;
47155;SDS011;32908;52.344;16.858;2022-10-31T06:30:54;84.07;;;47.03;;
47155;SDS011;32908;52.344;16.858;2022-10-31T06:33:22;76.03;;;46.37;;
47155;SDS011;32908;52.344;16.858;2022-10-31T06:35:50;67.80;;;43.50;;
47155;SDS011;32908;52.344;16.858;2022-10-31T06:38:18;69.40;;;43.83;;
47155;SDS011;32908;52.344;16.858;2022-10-31T06:40:47;68.97;;;45.07;;
47155;SDS011;32908;52.344;16.858;2022-10-31T06:43:15;73.93;;;43.70;;
47155;SDS011;32908;52.344;16.858;2022-10-31T06:45:43;79.30;;;50.23;;
47155;SDS011;32908;52.344;16.858;2022-10-31T06:48:12;76.70;;;48.23;;
47155;SDS011;32908;52.344;16.858;2022-10-31T06:50:40;75.33;;;49.90;;
47155;SDS011;32908;52.344;16.858;2022-10-31T06:53:09;71.07;;;46.00;;
47155;SDS011;32908;52.344;16.858;2022-10-31T06:55:37;68.45;;;45.20;;
47155;SDS011;32908;52.344;16.858;2022-10-31T06:58:06;61.30;;;42.35;;
47155;SDS011;32908;52.344;16.858;2022-10-31T07:00:36;63.67;;;43.93;;
47155;SDS011;32908;52.344;16.858;2022-10-31T07:03:06;73.37;;;46.47;;
47155;SDS011;32908;52.344;16.858;2022-10-31T07:05:37;73.50;;;45.37;;
47155;SDS011;32908;52.344;16.858;2022-10-31T07:08:06;67.83;;;44.60;;
47155;SDS011;32908;52.344;16.858;2022-10-31T07:10:36;73.30;;;45.55;;
47155;SDS011;32908;52.344;16.858;2022-10-31T07:13:06;68.20;;;43.30;;
47155;SDS011;32908;52.344;16.858;2022-10-31T07:15:37;74.20;;;42.23;;
47155;SDS011;32908;52.344;16.858;2022-10-31T07:18:08;64.27;;;41.37;;
47155;SDS011;32908;52.344;16.858;2022-10-31T07:20:37;63.50;;;39.87;;
47155;SDS011;32908;52.344;16.858;2022-10-31T07:23:07;57.57;;;37.67;;
47155;SDS011;32908;52.344;16.858;2022-10-31T07:25:36;54.17;;;37.70;;
47155;SDS011;32908;52.344;16.858;2022-10-31T07:28:04;53.40;;;39.10;;
47155;SDS011;32908;52.344;16.858;2022-10-31T07:30:33;59.60;;;38.00;;
47155;SDS011;32908;52.344;16.858;2022-10-31T07:33:01;56.03;;;35.63;;
47155;SDS011;32908;52.344;16.858;2022-10-31T07:35:30;51.27;;;33.37;;
47155;SDS011;32908;52.344;16.858;2022-10-31T07:38:07;48.20;;;32.80;;
47155;SDS011;32908;52.344;16.858;2022-10-31T07:40:36;47.05;;;34.45;;
47155;SDS011;32908;52.344;16.858;2022-10-31T07:43:05;43.73;;;30.83;;
47155;SDS011;32908;52.344;16.858;2022-10-31T07:45:34;44.83;;;31.23;;
47155;SDS011;32908;52.344;16.858;2022-10-31T07:48:02;49.93;;;33.67;;
47155;SDS011;32908;52.344;16.858;2022-10-31T07:50:32;57.23;;;37.47;;
47155;SDS011;32908;52.344;16.858;2022-10-31T07:53:01;60.00;;;40.55;;
47155;SDS011;32908;52.344;16.858;2022-10-31T07:55:31;56.87;;;38.30;;
47155;SDS011;32908;52.344;16.858;2022-10-31T07:58:01;56.27;;;35.47;;
47155;SDS011;32908;52.344;16.858;2022-10-31T08:00:30;49.53;;;33.50;;
47155;SDS011;32908;52.344;16.858;2022-10-31T08:03:00;53.60;;;36.57;;
47155;SDS011;32908;52.344;16.858;2022-10-31T08:05:29;62.07;;;38.87;;
47155;SDS011;32908;52.344;16.858;2022-10-31T08:07:58;60.43;;;39.10;;
47155;SDS011;32908;52.344;16.858;2022-10-31T08:10:26;69.63;;;41.73;;
47155;SDS011;32908;52.344;16.858;2022-10-31T08:12:56;69.25;;;40.90;;
47155;SDS011;32908;52.344;16.858;2022-10-31T08:15:25;70.77;;;41.97;;
47155;SDS011;32908;52.344;16.858;2022-10-31T08:17:54;72.30;;;43.33;;
47155;SDS011;32908;52.344;16.858;2022-10-31T08:20:22;71.60;;;40.83;;
47155;SDS011;32908;52.344;16.858;2022-10-31T08:22:55;74.47;;;40.80;;
47155;SDS011;32908;52.344;16.858;2022-10-31T08:25:25;61.73;;;37.57;;
47155;SDS011;32908;52.344;16.858;2022-10-31T08:27:54;66.73;;;38.63;;
47155;SDS011;32908;52.344;16.858;2022-10-31T08:30:24;49.33;;;34.33;;
47155;SDS011;32908;52.344;16.858;2022-10-31T08:33:01;48.07;;;33.70;;
47155;SDS011;32908;52.344;16.858;2022-10-31T08:37:58;48.63;;;31.63;;
47155;SDS011;32908;52.344;16.858;2022-10-31T08:40:28;41.93;;;30.60;;
47155;SDS011;32908;52.344;16.858;2022-10-31T08:42:57;44.10;;;31.77;;
47155;SDS011;32908;52.344;16.858;2022-10-31T08:45:27;37.93;;;26.60;;
47155;SDS011;32908;52.344;16.858;2022-10-31T08:47:59;34.93;;;25.30;;
47155;SDS011;32908;52.344;16.858;2022-10-31T08:50:29;34.05;;;24.50;;
47155;SDS011;32908;52.344;16.858;2022-10-31T08:53:02;33.20;;;24.17;;
47155;SDS011;32908;52.344;16.858;2022-10-31T08:55:32;31.60;;;23.80;;
47155;SDS011;32908;52.344;16.858;2022-10-31T08:58:00;35.47;;;23.33;;
47155;SDS011;32908;52.344;16.858;2022-10-31T09:00:29;35.67;;;23.60;;
47155;SDS011;32908;52.344;16.858;2022-10-31T09:02:58;31.40;;;22.70;;
47155;SDS011;32908;52.344;16.858;2022-10-31T09:05:28;29.17;;;21.23;;
47155;SDS011;32908;52.344;16.858;2022-10-31T09:07:56;30.03;;;20.10;;
47155;SDS011;32908;52.344;16.858;2022-10-31T09:10:25;33.60;;;21.73;;
47155;SDS011;32908;52.344;16.858;2022-10-31T09:12:55;23.30;;;15.50;;
47155;SDS011;32908;52.344;16.858;2022-10-31T09:15:25;25.70;;;16.30;;
47155;SDS011;32908;52.344;16.858;2022-10-31T09:17:54;21.33;;;14.13;;
47155;SDS011;32908;52.344;16.858;2022-10-31T09:20:22;22.57;;;14.40;;
47155;SDS011;32908;52.344;16.858;2022-10-31T09:22:55;19.37;;;13.10;;
47155;SDS011;32908;52.344;16.858;2022-10-31T09:25:24;20.63;;;13.33;;
47155;SDS011;32908;52.344;16.858;2022-10-31T09:27:56;17.37;;;12.90;;
47155;SDS011;32908;52.344;16.858;2022-10-31T09:30:25;18.63;;;12.70;;
47155;SDS011;32908;52.344;16.858;2022-10-31T09:32:55;24.40;;;14.20;;
47155;SDS011;32908;52.344;16.858;2022-10-31T09:35:25;19.30;;;13.90;;
47155;SDS011;32908;52.344;16.858;2022-10-31T09:37:54;20.57;;;13.60;;
47155;SDS011;32908;52.344;16.858;2022-10-31T09:40:24;17.03;;;13.93;;
47155;SDS011;32908;52.344;16.858;2022-10-31T09:42:59;27.93;;;14.87;;
47155;SDS011;32908;52.344;16.858;2022-10-31T09:45:33;16.03;;;13.17;;
47155;SDS011;32908;52.344;16.858;2022-10-31T09:50:40;24.27;;;16.03;;
47155;SDS011;32908;52.344;16.858;2022-10-31T09:53:10;24.15;;;15.50;;
47155;SDS011;32908;52.344;16.858;2022-10-31T09:55:44;23.00;;;16.03;;
47155;SDS011;32908;52.344;16.858;2022-10-31T09:58:15;23.43;;;16.37;;
47155;SDS011;32908;52.344;16.858;2022-10-31T10:00:46;29.27;;;16.87;;
47155;SDS011;32908;52.344;16.858;2022-10-31T10:03:20;22.63;;;16.77;;
47155;SDS011;32908;52.344;16.858;2022-10-31T10:05:56;27.93;;;14.87;;
47155;SDS011;32908;52.344;16.858;2022-10-31T10:08:32;23.90;;;15.13;;
47155;SDS011;32908;52.344;16.858;2022-10-31T10:11:02;20.00;;;14.13;;
47155;SDS011;32908;52.344;16.858;2022-10-31T10:13:57;24.20;;;15.45;;
47155;SDS011;32908;52.344;16.858;2022-10-31T10:16:49;18.87;;;14.27;;
47155;SDS011;32908;52.344;16.858;2022-10-31T10:22:39;24.63;;;14.90;;
47155;SDS011;32908;52.344;16.858;2022-10-31T10:25:14;19.20;;;13.70;;
47155;SDS011;32908;52.344;16.858;2022-10-31T10:27:47;24.73;;;15.00;;
47155;SDS011;32908;52.344;16.858;2022-10-31T10:30:19;24.43;;;15.07;;
47155;SDS011;32908;52.344;16.858;2022-10-31T10:32:49;26.53;;;14.27;;
47155;SDS011;32908;52.344;16.858;2022-10-31T10:35:21;22.93;;;13.67;;
47155;SDS011;32908;52.344;16.858;2022-10-31T10:37:52;20.23;;;15.20;;
47155;SDS011;32908;52.344;16.858;2022-10-31T10:40:26;20.35;;;13.40;;
47155;SDS011;32908;52.344;16.858;2022-10-31T10:42:58;23.93;;;13.47;;
47155;SDS011;32908;52.344;16.858;2022-10-31T10:45:49;22.30;;;14.00;;
47155;SDS011;32908;52.344;16.858;2022-10-31T10:48:42;22.07;;;13.60;;
47155;SDS011;32908;52.344;16.858;2022-10-31T10:51:15;21.03;;;14.43;;
47155;SDS011;32908;52.344;16.858;2022-10-31T10:54:01;20.13;;;14.20;;
47155;SDS011;32908;52.344;16.858;2022-10-31T10:56:43;22.67;;;14.23;;
47155;SDS011;32908;52.344;16.858;2022-10-31T10:59:16;24.00;;;14.53;;
47155;SDS011;32908;52.344;16.858;2022-10-31T11:01:46;27.70;;;14.47;;
47155;SDS011;32908;52.344;16.858;2022-10-31T11:04:28;22.57;;;15.40;;
47155;SDS011;32908;52.344;16.858;2022-10-31T11:07:01;27.37;;;15.10;;
47155;SDS011;32908;52.344;16.858;2022-10-31T11:09:31;24.77;;;14.40;;
47155;SDS011;32908;52.344;16.858;2022-10-31T11:12:00;25.53;;;13.80;;
47155;SDS011;32908;52.344;16.858;2022-10-31T11:14:36;20.93;;;14.67;;
47155;SDS011;32908;52.344;16.858;2022-10-31T11:17:20;23.50;;;14.67;;
47155;SDS011;32908;52.344;16.858;2022-10-31T11:20:00;26.03;;;16.37;;
47155;SDS011;32908;52.344;16.858;2022-10-31T11:22:31;28.17;;;16.17;;
47155;SDS011;32908;52.344;16.858;2022-10-31T11:24:59;26.93;;;16.30;;
47155;SDS011;32908;52.344;16.858;2022-10-31T11:27:27;27.25;;;16.60;;
47155;SDS011;32908;52.344;16.858;2022-10-31T11:30:04;27.40;;;16.25;;
47155;SDS011;32908;52.344;16.858;2022-10-31T11:32:34;31.43;;;16.87;;
47155;SDS011;32908;52.344;16.858;2022-10-31T11:35:08;28.87;;;17.53;;
47155;SDS011;32908;52.344;16.858;2022-10-31T11:37:40;22.93;;;16.23;;
47155;SDS011;32908;52.344;16.858;2022-10-31T11:40:15;23.23;;;16.60;;
47155;SDS011;32908;52.344;16.858;2022-10-31T11:42:44;30.83;;;16.17;;
47155;SDS011;32908;52.344;16.858;2022-10-31T11:45:15;22.80;;;15.80;;
47155;SDS011;32908;52.344;16.858;2022-10-31T11:47:46;23.07;;;15.20;;
47155;SDS011;32908;52.344;16.858;2022-10-31T11:50:18;26.93;;;15.40;;
47155;SDS011;32908;52.344;16.858;2022-10-31T11:52:48;25.20;;;15.67;;
47155;SDS011;32908;52.344;16.858;2022-10-31T11:55:31;21.67;;;15.83;;
47155;SDS011;32908;52.344;16.858;2022-10-31T11:58:01;26.13;;;15.30;;
47155;SDS011;32908;52.344;16.858;2022-10-31T12:00:30;25.25;;;15.40;;
47155;SDS011;32908;52.344;16.858;2022-10-31T12:03:13;27.07;;;15.07;;
47155;SDS011;32908;52.344;16.858;2022-10-31T12:05:51;24.43;;;15.17;;
47155;SDS011;32908;52.344;16.858;2022-10-31T12:08:24;22.50;;;14.63;;
47155;SDS011;32908;52.344;16.858;2022-10-31T12:10:58;25.90;;;14.40;;
47155;SDS011;32908;52.344;16.858;2022-10-31T12:13:33;23.97;;;14.50;;
47155;SDS011;32908;52.344;16.858;2022-10-31T12:16:06;23.30;;;14.37;;
47155;SDS011;32908;52.344;16.858;2022-10-31T12:18:40;24.10;;;14.10;;
47155;SDS011;32908;52.344;16.858;2022-10-31T12:21:31;23.45;;;13.35;;
47155;SDS011;32908;52.344;16.858;2022-10-31T12:24:12;27.27;;;15.20;;
47155;SDS011;32908;52.344;16.858;2022-10-31T12:26:49;23.77;;;14.63;;
47155;SDS011;32908;52.344;16.858;2022-10-31T12:29:26;21.25;;;13.30;;
47155;SDS011;32908;52.344;16.858;2022-10-31T12:32:04;25.60;;;14.90;;
47155;SDS011;32908;52.344;16.858;2022-10-31T12:34:51;22.35;;;15.30;;
47155;SDS011;32908;52.344;16.858;2022-10-31T12:37:35;24.03;;;14.83;;
47155;SDS011;32908;52.344;16.858;2022-10-31T12:40:18;29.83;;;15.03;;
47155;SDS011;32908;52.344;16.858;2022-10-31T12:42:58;25.67;;;15.10;;
47155;SDS011;32908;52.344;16.858;2022-10-31T12:45:39;21.13;;;14.07;;
47155;SDS011;32908;52.344;16.858;2022-10-31T12:51:25;31.23;;;15.93;;
47155;SDS011;32908;52.344;16.858;2022-10-31T12:54:05;32.88;;;16.90;;
47155;SDS011;32908;52.344;16.858;2022-10-31T12:56:45;24.90;;;14.83;;
47155;SDS011;32908;52.344;16.858;2022-10-31T12:59:21;31.40;;;16.27;;
47155;SDS011;32908;52.344;16.858;2022-10-31T13:01:55;30.57;;;15.67;;
47155;SDS011;32908;52.344;16.858;2022-10-31T13:04:31;26.03;;;14.90;;
47155;SDS011;32908;52.344;16.858;2022-10-31T13:07:04;29.87;;;15.60;;
47155;SDS011;32908;52.344;16.858;2022-10-31T13:09:36;29.27;;;15.23;;
47155;SDS011;32908;52.344;16.858;2022-10-31T13:12:08;134.13;;;27.47;;
47155;SDS011;32908;52.344;16.858;2022-10-31T13:14:38;92.73;;;25.00;;
47155;SDS011;32908;52.344;16.858;2022-10-31T13:17:11;40.63;;;16.60;;
47155;SDS011;32908;52.344;16.858;2022-10-31T13:19:44;46.93;;;17.80;;
47155;SDS011;32908;52.344;16.858;2022-10-31T13:22:14;40.00;;;18.80;;
47155;SDS011;32908;52.344;16.858;2022-10-31T13:24:47;31.77;;;17.47;;
47155;SDS011;32908;52.344;16.858;2022-10-31T13:27:20;29.07;;;16.70;;
47155;SDS011;32908;52.344;16.858;2022-10-31T13:29:54;26.70;;;17.77;;
47155;SDS011;32908;52.344;16.858;2022-10-31T13:32:29;24.63;;;18.20;;
47155;SDS011;32908;52.344;16.858;2022-10-31T13:35:07;28.77;;;18.57;;
47155;SDS011;32908;52.344;16.858;2022-10-31T13:37:41;31.37;;;20.40;;
47155;SDS011;32908;52.344;16.858;2022-10-31T13:40:16;27.83;;;19.57;;
47155;SDS011;32908;52.344;16.858;2022-10-31T13:42:54;33.30;;;20.35;;
47155;SDS011;32908;52.344;16.858;2022-10-31T13:45:25;32.73;;;20.73;;
47155;SDS011;32908;52.344;16.858;2022-10-31T13:47:56;26.37;;;19.40;;
47155;SDS011;32908;52.344;16.858;2022-10-31T13:50:26;26.77;;;18.80;;
47155;SDS011;32908;52.344;16.858;2022-10-31T13:53:12;29.47;;;18.50;;
47155;SDS011;32908;52.344;16.858;2022-10-31T13:55:47;27.30;;;18.97;;
47155;SDS011;32908;52.344;16.858;2022-10-31T13:58:21;28.00;;;19.17;;
47155;SDS011;32908;52.344;16.858;2022-10-31T14:01:03;36.23;;;22.77;;
47155;SDS011;32908;52.344;16.858;2022-10-31T14:03:39;28.05;;;18.95;;
47155;SDS011;32908;52.344;16.858;2022-10-31T14:06:09;28.67;;;18.57;;
47155;SDS011;32908;52.344;16.858;2022-10-31T14:08:39;34.10;;;22.70;;
47155;SDS011;32908;52.344;16.858;2022-10-31T14:11:09;28.83;;;18.60;;
47155;SDS011;32908;52.344;16.858;2022-10-31T14:13:53;29.00;;;18.13;;
47155;SDS011;32908;52.344;16.858;2022-10-31T14:16:22;25.77;;;17.90;;
47155;SDS011;32908;52.344;16.858;2022-10-31T14:18:56;28.60;;;18.30;;
47155;SDS011;32908;52.344;16.858;2022-10-31T14:21:28;31.03;;;17.10;;
47155;SDS011;32908;52.344;16.858;2022-10-31T14:23:57;24.30;;;17.27;;
47155;SDS011;32908;52.344;16.858;2022-10-31T14:26:33;27.20;;;17.80;;
47155;SDS011;32908;52.344;16.858;2022-10-31T14:29:20;30.77;;;18.73;;
47155;SDS011;32908;52.344;16.858;2022-10-31T14:34:52;24.85;;;18.20;;
47155;SDS011;32908;52.344;16.858;2022-10-31T14:37:35;33.70;;;19.23;;
47155;SDS011;32908;52.344;16.858;2022-10-31T14:40:17;33.17;;;17.73;;
47155;SDS011;32908;52.344;16.858;2022-10-31T14:43:01;33.73;;;18.10;;
47155;SDS011;32908;52.344;16.858;2022-10-31T14:45:54;44.67;;;20.30;;
47155;SDS011;32908;52.344;16.858;2022-10-31T14:48:39;37.50;;;19.97;;
47155;SDS011;32908;52.344;16.858;2022-10-31T14:51:19;34.20;;;19.00;;
47155;SDS011;32908;52.344;16.858;2022-10-31T14:53:49;32.07;;;17.80;;
47155;SDS011;32908;52.344;16.858;2022-10-31T14:56:20;32.57;;;19.03;;
47155;SDS011;32908;52.344;16.858;2022-10-31T14:58:50;29.97;;;18.90;;
47155;SDS011;32908;52.344;16.858;2022-10-31T15:01:22;31.23;;;18.00;;